Time;durP1;ratioP1;P1;durP2;ratioP2;P2;SDS_P1;SDS_P2;PMS_P1;PMS_P2;Temp;Humidity;BMP_temperature;BMP_pressure;BME280_temperature;BME280_humidity;BME280_pressure;Samples;Min_cycle;Max_cycle;Signal;HPM_P1;HPM_P2
2023/09/11 00:01:36;;;;;;;10.75;5.97;;;;;;;;;;4895003;29;20033;-80
2023/09/11 00:04:01;;;;;;;8.70;6.15;;;;;;;;;;4895418;29;20040;-81
2023/09/11 00:06:27;;;;;;;10.68;6.10;;;;;;;;;;4910279;29;20044;-80
2023/09/11 00:08:53;;;;;;;12.40;6.93;;;;;;;;;;4891360;29;20037;-80
2023/09/11 00:11:18;;;;;;;11.32;5.97;;;;;;;;;;4907565;29;20033;-80
2023/09/11 00:13:44;;;;;;;10.70;6.28;;;;;;;;;;4924369;29;20024;-81
2023/09/11 00:16:10;;;;;;;11.57;6.00;;;;;;;;;;4907633;29;20036;-80
2023/09/11 00:18:37;;;;;;;10.77;6.00;;;;;;;;;;4907213;29;20128;-80
2023/09/11 00:21:03;;;;;;;13.57;6.50;;;;;;;;;;4909057;29;20072;-80
2023/09/11 00:23:30;;;;;;;10.25;6.30;;;;;;;;;;4893755;29;20064;-80
2023/09/11 00:25:55;;;;;;;8.73;5.80;;;;;;;;;;4927187;29;20033;-79
2023/09/11 00:28:21;;;;;;;12.40;6.35;;;;;;;;;;4898837;29;20150;-79
2023/09/11 00:30:47;;;;;;;7.90;5.68;;;;;;;;;;4912379;29;20144;-80
2023/09/11 00:33:12;;;;;;;10.60;5.88;;;;;;;;;;4910605;29;20045;-80
2023/09/11 00:35:38;;;;;;;12.40;7.68;;;;;;;;;;4911147;29;20048;-80
2023/09/11 00:38:04;;;;;;;12.77;7.07;;;;;;;;;;4910191;29;20052;-78
2023/09/11 00:40:29;;;;;;;12.75;6.65;;;;;;;;;;4880587;29;20041;-80
2023/09/11 00:42:55;;;;;;;11.85;6.50;;;;;;;;;;4892873;29;20480;-80
2023/09/11 00:45:21;;;;;;;12.85;6.55;;;;;;;;;;4909842;29;20516;-79
2023/09/11 00:47:47;;;;;;;10.13;6.68;;;;;;;;;;4895717;29;20088;-79
2023/09/11 00:50:15;;;;;;;14.68;6.47;;;;;;;;;;4897504;29;20044;-79
2023/09/11 00:52:41;;;;;;;12.05;6.45;;;;;;;;;;4896271;29;20036;-81
2023/09/11 00:55:07;;;;;;;10.32;6.45;;;;;;;;;;4924982;29;20039;-77
2023/09/11 00:57:33;;;;;;;9.68;5.75;;;;;;;;;;4890745;29;20052;-80
2023/09/11 00:59:59;;;;;;;9.95;5.93;;;;;;;;;;4889267;29;20108;-79
2023/09/11 01:02:24;;;;;;;11.65;5.72;;;;;;;;;;4904976;29;20025;-80
2023/09/11 01:04:51;;;;;;;12.38;6.18;;;;;;;;;;4889512;29;20040;-79
2023/09/11 01:07:17;;;;;;;13.60;6.55;;;;;;;;;;4873203;29;20036;-79
2023/09/11 01:09:43;;;;;;;12.38;5.97;;;;;;;;;;4888537;29;20064;-78
2023/09/11 01:12:08;;;;;;;9.77;6.20;;;;;;;;;;4903826;29;20088;-80
2023/09/11 01:14:37;;;;;;;11.43;6.32;;;;;;;;;;4906457;29;20539;-80
2023/09/11 01:17:06;;;;;;;11.95;5.93;;;;;;;;;;4905037;29;20484;-80
2023/09/11 01:19:50;;;;;;;8.90;5.85;;;;;;;;;;4888030;29;20378;-78
2023/09/11 01:22:30;;;;;;;10.38;6.13;;;;;;;;;;4890355;29;20037;-79
2023/09/11 01:25:15;;;;;;;11.77;6.00;;;;;;;;;;4890333;29;20047;-79
2023/09/11 01:27:47;;;;;;;8.63;5.55;;;;;;;;;;4888687;29;20119;-79
2023/09/11 01:30:12;;;;;;;15.43;6.15;;;;;;;;;;4921948;29;20032;-78
2023/09/11 01:32:39;;;;;;;10.75;5.88;;;;;;;;;;4937846;29;20099;-79
2023/09/11 01:35:05;;;;;;;8.88;6.20;;;;;;;;;;4924761;29;20032;-79
2023/09/11 01:37:31;;;;;;;10.68;5.97;;;;;;;;;;4943461;29;21669;-79
2023/09/11 01:39:57;;;;;;;11.60;6.00;;;;;;;;;;4929922;29;20043;-80
2023/09/11 01:42:26;;;;;;;11.52;6.22;;;;;;;;;;4944734;29;20040;-79
2023/09/11 01:44:52;;;;;;;12.10;6.13;;;;;;;;;;4924966;29;20043;-79
2023/09/11 01:47:20;;;;;;;10.70;5.95;;;;;;;;;;4930613;29;20060;-80
2023/09/11 01:49:47;;;;;;;13.30;6.00;;;;;;;;;;4905238;29;20056;-80
2023/09/11 01:52:13;;;;;;;10.60;6.30;;;;;;;;;;4904357;29;20029;-79
2023/09/11 01:54:39;;;;;;;10.98;6.05;;;;;;;;;;4923040;29;20074;-79
2023/09/11 01:57:05;;;;;;;9.90;5.88;;;;;;;;;;4922551;29;20028;-79
2023/09/11 01:59:31;;;;;;;14.68;6.32;;;;;;;;;;4922287;29;20507;-80
2023/09/11 02:01:56;;;;;;;11.55;5.97;;;;;;;;;;4922516;29;20135;-80
2023/09/11 02:04:22;;;;;;;15.95;6.43;;;;;;;;;;4920980;29;20042;-78
2023/09/11 02:06:48;;;;;;;11.57;6.10;;;;;;;;;;4902927;29;20085;-78
2023/09/11 02:09:14;;;;;;;17.98;6.13;;;;;;;;;;4889409;29;20043;-79
2023/09/11 02:11:39;;;;;;;17.35;6.60;;;;;;;;;;4875892;29;20032;-79
2023/09/11 02:14:05;;;;;;;12.45;5.97;;;;;;;;;;4877689;29;20055;-77
2023/09/11 02:16:31;;;;;;;12.52;6.68;;;;;;;;;;4913285;29;20040;-79
2023/09/11 02:18:57;;;;;;;13.45;6.20;;;;;;;;;;4884508;29;20114;-78
2023/09/11 02:21:23;;;;;;;11.68;6.05;;;;;;;;;;4915707;29;20017;-79
2023/09/11 02:23:50;;;;;;;11.50;6.20;;;;;;;;;;4917332;29;20036;-79
2023/09/11 02:26:16;;;;;;;14.65;6.28;;;;;;;;;;4910139;29;20056;-79
2023/09/11 02:28:42;;;;;;;14.55;6.43;;;;;;;;;;4908452;29;20061;-79
2023/09/11 02:31:08;;;;;;;11.93;6.22;;;;;;;;;;4876634;29;20113;-79
2023/09/11 02:33:36;;;;;;;9.02;5.78;;;;;;;;;;4891535;29;20495;-79
2023/09/11 02:36:02;;;;;;;12.52;6.85;;;;;;;;;;4893249;29;20037;-80
2023/09/11 02:38:28;;;;;;;8.90;6.07;;;;;;;;;;4880238;29;20104;-79
2023/09/11 02:40:54;;;;;;;14.82;9.52;;;;;;;;;;4895256;29;20041;-79
2023/09/11 02:43:19;;;;;;;14.65;8.05;;;;;;;;;;4900832;29;20051;-79
2023/09/11 02:45:48;;;;;;;19.63;12.10;;;;;;;;;;4910462;29;20037;-80
2023/09/11 02:48:14;;;;;;;14.00;8.82;;;;;;;;;;4891229;29;20061;-79
2023/09/11 02:50:39;;;;;;;13.60;6.68;;;;;;;;;;4906349;29;20067;-79
2023/09/11 02:53:08;;;;;;;11.57;6.88;;;;;;;;;;4907288;29;20041;-78
2023/09/11 02:55:36;;;;;;;12.70;7.32;;;;;;;;;;4908617;29;20033;-79
2023/09/11 02:58:02;;;;;;;39.25;23.38;;;;;;;;;;4908251;29;20038;-80
2023/09/11 03:00:27;;;;;;;12.48;8.73;;;;;;;;;;4906791;29;20123;-80
2023/09/11 03:02:56;;;;;;;12.40;6.50;;;;;;;;;;4904531;29;20041;-78
2023/09/11 03:05:23;;;;;;;10.75;5.97;;;;;;;;;;4907267;29;20044;-78
2023/09/11 03:07:50;;;;;;;11.73;6.90;;;;;;;;;;4908335;29;20048;-78
2023/09/11 03:10:15;;;;;;;13.77;6.88;;;;;;;;;;4907478;29;20048;-79
2023/09/11 03:12:42;;;;;;;16.17;7.18;;;;;;;;;;4924447;29;20037;-78
2023/09/11 03:15:09;;;;;;;13.95;7.88;;;;;;;;;;4908598;29;20032;-79
2023/09/11 03:17:36;;;;;;;11.98;7.40;;;;;;;;;;4892857;29;20111;-79
2023/09/11 03:20:02;;;;;;;15.20;7.75;;;;;;;;;;4908960;29;20041;-80
2023/09/11 03:22:28;;;;;;;12.90;8.02;;;;;;;;;;4910138;29;20093;-78
2023/09/11 03:24:54;;;;;;;13.43;7.30;;;;;;;;;;4912090;29;20061;-79
2023/09/11 03:27:20;;;;;;;13.18;7.28;;;;;;;;;;4915860;29;20024;-79
2023/09/11 03:29:49;;;;;;;11.82;7.82;;;;;;;;;;4932953;29;20036;-79
2023/09/11 03:32:15;;;;;;;17.40;8.80;;;;;;;;;;4964882;29;20036;-80
2023/09/11 03:34:41;;;;;;;13.23;8.68;;;;;;;;;;4950179;29;20034;-80
2023/09/11 03:37:09;;;;;;;11.75;7.57;;;;;;;;;;4950358;29;20031;-79
2023/09/11 03:39:35;;;;;;;;;;;;;;;;;;4950220;29;20101;-79
2023/09/11 03:42:01;;;;;;;12.15;7.22;;;;;;;;;;4942163;29;19911;-79
2023/09/11 03:44:27;;;;;;;14.82;7.80;;;;;;;;;;4940417;29;20136;-78
2023/09/11 03:46:53;;;;;;;13.82;7.70;;;;;;;;;;4910234;29;20059;-79
2023/09/11 03:49:20;;;;;;;12.88;7.57;;;;;;;;;;4923725;29;20044;-79
2023/09/11 03:51:47;;;;;;;;;;;;;;;;;;4928474;29;20028;-80
2023/09/11 03:54:13;;;;;;;14.05;7.60;;;;;;;;;;4935053;29;19907;-80
2023/09/11 03:56:40;;;;;;;15.85;9.80;;;;;;;;;;4922825;29;20016;-79
2023/09/11 03:59:07;;;;;;;18.08;9.73;;;;;;;;;;4936955;29;20020;-80
2023/09/11 04:01:33;;;;;;;12.43;7.95;;;;;;;;;;4953763;29;20016;-80
2023/09/11 04:03:59;;;;;;;11.23;7.68;;;;;;;;;;4964465;29;20048;-80
2023/09/11 04:06:25;;;;;;;12.18;7.95;;;;;;;;;;4929964;29;20424;-79
2023/09/11 04:08:50;;;;;;;14.27;8.27;;;;;;;;;;4945258;29;20036;-80
2023/09/11 04:11:18;;;;;;;16.13;9.05;;;;;;;;;;4927376;29;20036;-79
2023/09/11 04:13:46;;;;;;;17.15;10.65;;;;;;;;;;4942895;29;20100;-80
2023/09/11 04:16:15;;;;;;;12.57;7.68;;;;;;;;;;4896796;29;20028;-78
2023/09/11 04:18:42;;;;;;;12.38;7.55;;;;;;;;;;4929721;29;20051;-79
2023/09/11 04:21:08;;;;;;;13.00;7.97;;;;;;;;;;4946290;29;20484;-79
2023/09/11 04:23:36;;;;;;;15.77;8.73;;;;;;;;;;4914199;29;20048;-78
2023/09/11 04:26:02;;;;;;;15.10;7.90;;;;;;;;;;4946944;29;20055;-79
2023/09/11 04:28:28;;;;;;;17.67;8.73;;;;;;;;;;4922071;29;20028;-80
2023/09/11 04:30:53;;;;;;;15.35;8.45;;;;;;;;;;4930881;29;20055;-79
2023/09/11 04:33:20;;;;;;;21.73;10.65;;;;;;;;;;4929239;29;20032;-79
2023/09/11 04:35:46;;;;;;;11.85;8.65;;;;;;;;;;4912783;29;20036;-79
2023/09/11 04:38:12;;;;;;;17.95;11.77;;;;;;;;;;4912536;29;20035;-79
2023/09/11 04:40:38;;;;;;;13.68;8.63;;;;;;;;;;4881747;29;20068;-79
2023/09/11 04:43:04;;;;;;;14.32;8.60;;;;;;;;;;4895312;29;20069;-80
2023/09/11 04:45:31;;;;;;;13.68;8.93;;;;;;;;;;4894098;29;20040;-80
2023/09/11 04:47:57;;;;;;;14.38;9.18;;;;;;;;;;4909983;29;20041;-78
2023/09/11 04:50:23;;;;;;;13.70;8.38;;;;;;;;;;4896235;29;20061;-79
2023/09/11 04:52:50;;;;;;;12.90;8.30;;;;;;;;;;4896499;29;20056;-79
2023/09/11 04:55:16;;;;;;;16.48;8.70;;;;;;;;;;4896498;29;20047;-80
2023/09/11 04:57:41;;;;;;;24.48;11.57;;;;;;;;;;4925310;29;20602;-79
2023/09/11 05:00:10;;;;;;;19.35;9.35;;;;;;;;;;4893835;29;20048;-80
2023/09/11 05:02:38;;;;;;;14.27;8.70;;;;;;;;;;4894388;29;20062;-79
2023/09/11 05:05:04;;;;;;;19.88;8.25;;;;;;;;;;4909370;29;20041;-79
2023/09/11 05:07:30;;;;;;;18.50;9.90;;;;;;;;;;4907146;29;20051;-79
2023/09/11 05:09:56;;;;;;;14.27;8.38;;;;;;;;;;4923593;29;20036;-79
2023/09/11 05:12:22;;;;;;;18.67;12.07;;;;;;;;;;4910082;29;20372;-80
2023/09/11 05:14:48;;;;;;;19.50;9.27;;;;;;;;;;4895756;29;20488;-79
2023/09/11 05:17:13;;;;;;;14.52;9.15;;;;;;;;;;4897968;29;20056;-80
2023/09/11 05:19:39;;;;;;;12.52;9.00;;;;;;;;;;4910401;29;20048;-79
2023/09/11 05:22:05;;;;;;;15.70;9.77;;;;;;;;;;4913037;29;20047;-78
2023/09/11 05:24:33;;;;;;;13.80;9.68;;;;;;;;;;4928301;29;20032;-78
2023/09/11 05:26:59;;;;;;;13.02;8.55;;;;;;;;;;4900099;29;20073;-79
2023/09/11 05:29:24;;;;;;;23.10;13.45;;;;;;;;;;4913467;29;20040;-79
2023/09/11 05:31:50;;;;;;;14.23;9.50;;;;;;;;;;4900827;29;20032;-78
2023/09/11 05:34:15;;;;;;;17.05;9.07;;;;;;;;;;4916897;29;20029;-79
2023/09/11 05:36:41;;;;;;;18.33;9.95;;;;;;;;;;4895768;29;20381;-79
2023/09/11 05:39:08;;;;;;;18.40;9.70;;;;;;;;;;4892803;29;20044;-79
2023/09/11 05:41:34;;;;;;;17.38;9.85;;;;;;;;;;4895005;29;20105;-78
2023/09/11 05:44:00;;;;;;;17.23;9.35;;;;;;;;;;4894084;29;20511;-79
2023/09/11 05:46:25;;;;;;;16.50;10.00;;;;;;;;;;4908273;29;20040;-79
2023/09/11 05:48:51;;;;;;;15.05;9.25;;;;;;;;;;4911579;29;20079;-79
2023/09/11 05:51:17;;;;;;;14.80;9.65;;;;;;;;;;4914581;29;20032;-79
2023/09/11 05:53:42;;;;;;;15.93;10.05;;;;;;;;;;4914183;29;20545;-79
2023/09/11 05:56:08;;;;;;;16.10;9.52;;;;;;;;;;4911792;29;20028;-79
2023/09/11 05:58:34;;;;;;;13.52;9.27;;;;;;;;;;4878836;29;20054;-79
2023/09/11 06:01:00;;;;;;;14.68;9.43;;;;;;;;;;4909480;29;20036;-79
2023/09/11 06:03:26;;;;;;;21.30;10.10;;;;;;;;;;4892607;29;20041;-79
2023/09/11 06:05:51;;;;;;;17.52;9.98;;;;;;;;;;4907904;29;20048;-78
2023/09/11 06:08:17;;;;;;;22.20;11.32;;;;;;;;;;4906292;29;20560;-77
2023/09/11 06:10:43;;;;;;;18.05;10.13;;;;;;;;;;4923587;29;20060;-78
2023/09/11 06:13:09;;;;;;;19.15;10.32;;;;;;;;;;4876523;29;20530;-79
2023/09/11 06:15:36;;;;;;;16.70;9.18;;;;;;;;;;4908354;29;20079;-78
2023/09/11 06:18:03;;;;;;;19.63;9.60;;;;;;;;;;4890366;29;20037;-78
2023/09/11 06:20:29;;;;;;;17.98;10.52;;;;;;;;;;4904932;29;20083;-78
2023/09/11 06:22:55;;;;;;;20.50;10.75;;;;;;;;;;4919136;29;20036;-78
2023/09/11 06:25:21;;;;;;;16.15;9.57;;;;;;;;;;4887726;29;20064;-78
2023/09/11 06:27:47;;;;;;;19.98;10.65;;;;;;;;;;4906497;29;20040;-78
2023/09/11 06:30:13;;;;;;;21.38;10.52;;;;;;;;;;4907831;29;20104;-79
2023/09/11 06:32:39;;;;;;;15.52;9.77;;;;;;;;;;4926855;29;20052;-78
2023/09/11 06:35:05;;;;;;;18.17;10.18;;;;;;;;;;4925931;29;20032;-79
2023/09/11 06:37:31;;;;;;;15.55;9.70;;;;;;;;;;4893762;29;20039;-80
2023/09/11 06:39:56;;;;;;;21.05;10.32;;;;;;;;;;4925645;29;20069;-79
2023/09/11 06:42:23;;;;;;;20.83;10.00;;;;;;;;;;4904830;29;20052;-79
2023/09/11 06:44:50;;;;;;;23.60;11.80;;;;;;;;;;4902070;29;20421;-78
2023/09/11 06:47:16;;;;;;;23.38;10.70;;;;;;;;;;4886276;29;20032;-78
2023/09/11 06:49:41;;;;;;;15.45;10.23;;;;;;;;;;4887290;29;20037;-77
2023/09/11 06:52:08;;;;;;;18.17;10.20;;;;;;;;;;4905903;29;20025;-79
2023/09/11 06:54:35;;;;;;;15.93;9.97;;;;;;;;;;4888676;29;20056;-78
2023/09/11 06:57:02;;;;;;;17.60;10.50;;;;;;;;;;4903350;29;20033;-79
2023/09/11 06:59:31;;;;;;;19.17;10.02;;;;;;;;;;4887977;29;20600;-79
2023/09/11 07:01:56;;;;;;;16.73;11.02;;;;;;;;;;4889891;29;20072;-79
2023/09/11 07:04:25;;;;;;;17.63;10.52;;;;;;;;;;4889560;29;20493;-78
2023/09/11 07:06:51;;;;;;;17.38;10.43;;;;;;;;;;4890648;29;20039;-79
2023/09/11 07:09:17;;;;;;;17.30;10.07;;;;;;;;;;4892767;29;20405;-79
2023/09/11 07:11:46;;;;;;;22.02;10.07;;;;;;;;;;4895074;29;20040;-79
2023/09/11 07:14:18;;;;;;;15.90;10.35;;;;;;;;;;4879226;29;20123;-78
2023/09/11 07:16:44;;;;;;;18.88;9.85;;;;;;;;;;4913243;29;20032;-79
2023/09/11 07:19:10;;;;;;;18.40;10.13;;;;;;;;;;4913893;29;20049;-79
2023/09/11 07:21:36;;;;;;;22.00;9.98;;;;;;;;;;4896214;29;20507;-78
2023/09/11 07:24:02;;;;;;;18.77;10.35;;;;;;;;;;4911905;29;20040;-79
2023/09/11 07:26:28;;;;;;;24.73;9.55;;;;;;;;;;4911978;29;20039;-79
2023/09/11 07:28:58;;;;;;;17.33;9.77;;;;;;;;;;4915507;29;20044;-78
2023/09/11 07:31:24;;;;;;;13.25;9.05;;;;;;;;;;4952480;29;20036;-79
2023/09/11 07:33:50;;;;;;;15.43;9.40;;;;;;;;;;4938997;29;20096;-79
2023/09/11 07:36:17;;;;;;;19.10;9.18;;;;;;;;;;4952962;29;20036;-79
2023/09/11 07:38:44;;;;;;;21.45;10.27;;;;;;;;;;4945854;29;20060;-79
2023/09/11 07:41:11;;;;;;;22.30;13.07;;;;;;;;;;4925488;29;20028;-78
2023/09/11 07:43:37;;;;;;;16.25;8.13;;;;;;;;;;4894237;29;20033;-78
2023/09/11 07:46:03;;;;;;;17.65;7.65;;;;;;;;;;4893487;29;20043;-81
2023/09/11 07:48:29;;;;;;;14.60;7.15;;;;;;;;;;4892945;29;20075;-83
2023/09/11 07:51:04;;;;;;;11.43;7.47;;;;;;;;;;4893990;29;20159;-83
2023/09/11 07:53:30;;;;;;;15.75;7.57;;;;;;;;;;4907120;29;20033;-82
2023/09/11 07:55:57;;;;;;;15.55;8.68;;;;;;;;;;4890671;29;20033;-81
2023/09/11 07:58:50;;;;;;;12.77;8.23;;;;;;;;;;5001056;23;20052;-81
2023/09/11 08:01:18;;;;;;;14.10;7.35;;;;;;;;;;4966781;29;20400;-81
2023/09/11 08:03:45;;;;;;;14.73;7.90;;;;;;;;;;4948629;29;20039;-81
2023/09/11 08:06:11;;;;;;;16.00;8.82;;;;;;;;;;4963325;29;20442;-81
2023/09/11 08:08:37;;;;;;;14.20;7.57;;;;;;;;;;4960139;28;20032;-81
2023/09/11 08:11:13;;;;;;;18.58;8.52;;;;;;;;;;4959691;29;20063;-81
2023/09/11 08:13:41;;;;;;;14.52;7.85;;;;;;;;;;4962322;29;20027;-81
2023/09/11 08:16:08;;;;;;;15.70;8.07;;;;;;;;;;4947411;29;20064;-81
2023/09/11 08:18:34;;;;;;;16.80;7.95;;;;;;;;;;4964684;28;20034;-81
2023/09/11 08:21:01;;;;;;;15.88;7.35;;;;;;;;;;4949926;29;20032;-81
2023/09/11 08:23:29;;;;;;;12.60;7.03;;;;;;;;;;4968945;29;20050;-81
2023/09/11 08:25:59;;;;;;;14.43;7.32;;;;;;;;;;4966735;29;20047;-82
2023/09/11 08:28:25;;;;;;;14.80;7.20;;;;;;;;;;4966864;28;20027;-81
2023/09/11 08:30:51;;;;;;;17.15;8.07;;;;;;;;;;4964592;29;20055;-81
2023/09/11 08:33:21;;;;;;;15.30;6.72;;;;;;;;;;4943678;29;20047;-80
2023/09/11 08:35:48;;;;;;;11.85;7.25;;;;;;;;;;4942016;29;20038;-81
2023/09/11 08:38:17;;;;;;;9.38;6.10;;;;;;;;;;4926312;29;20036;-81
2023/09/11 08:40:43;;;;;;;10.45;6.28;;;;;;;;;;4939524;29;20119;-80
2023/09/11 08:43:12;;;;;;;16.13;7.07;;;;;;;;;;4941236;29;20042;-82
2023/09/11 08:45:40;;;;;;;11.75;6.00;;;;;;;;;;4955070;29;20032;-82
2023/09/11 08:48:06;;;;;;;;;;;;;;;;;;4943460;29;20043;-82
2023/09/11 08:50:33;;;;;;;10.25;6.70;;;;;;;;;;4951736;29;19982;-82
2023/09/11 08:53:02;;;;;;;11.93;6.43;;;;;;;;;;4931827;29;20044;-82
2023/09/11 08:55:28;;;;;;;13.45;6.38;;;;;;;;;;4933500;29;20119;-82
2023/09/11 08:57:55;;;;;;;11.48;6.88;;;;;;;;;;4935792;29;20032;-82
2023/09/11 09:00:21;;;;;;;16.45;6.22;;;;;;;;;;4967306;29;20036;-82
2023/09/11 09:02:50;;;;;;;10.07;5.85;;;;;;;;;;4951717;29;20040;-81
2023/09/11 09:05:16;;;;;;;10.68;6.55;;;;;;;;;;4950771;29;20047;-82
2023/09/11 09:07:46;;;;;;;12.60;6.15;;;;;;;;;;4948198;29;20139;-82
2023/09/11 09:10:13;;;;;;;12.55;6.20;;;;;;;;;;4958186;29;20067;-82
2023/09/11 09:12:39;;;;;;;12.65;5.78;;;;;;;;;;4957767;28;20036;-82
2023/09/11 09:15:06;;;;;;;10.20;6.82;;;;;;;;;;4961123;28;20407;-82
2023/09/11 09:17:33;;;;;;;12.32;6.00;;;;;;;;;;4962084;28;20433;-82
2023/09/11 09:19:58;;;;;;;9.65;5.90;;;;;;;;;;4961382;28;20039;-82
2023/09/11 09:22:26;;;;;;;9.32;5.82;;;;;;;;;;4948992;28;20031;-82
2023/09/11 09:24:53;;;;;;;12.70;6.70;;;;;;;;;;4942286;29;20046;-82
2023/09/11 09:27:19;;;;;;;11.98;6.50;;;;;;;;;;4942503;29;20112;-82
2023/09/11 09:29:45;;;;;;;13.52;6.40;;;;;;;;;;4942701;29;20054;-82
2023/09/11 09:32:11;;;;;;;11.63;6.10;;;;;;;;;;4942158;29;20039;-82
2023/09/11 09:34:37;;;;;;;11.77;6.38;;;;;;;;;;4977252;28;20027;-82
2023/09/11 09:37:03;;;;;;;11.77;6.25;;;;;;;;;;4964728;28;20518;-83
2023/09/11 09:39:30;;;;;;;13.27;6.72;;;;;;;;;;4972724;28;20032;-83
2023/09/11 09:41:58;;;;;;;8.63;5.90;;;;;;;;;;4929315;29;20068;-83
2023/09/11 09:44:34;;;;;;;14.85;6.25;;;;;;;;;;4943066;29;20048;-83
2023/09/11 09:47:10;;;;;;;9.75;5.38;;;;;;;;;;4930000;29;20107;-83
2023/09/11 09:50:06;;;;;;;12.07;5.10;;;;;;;;;;4944978;29;20079;-83
2023/09/11 09:52:31;;;;;;;9.80;5.43;;;;;;;;;;4919282;29;20112;-83
2023/09/11 09:55:08;;;;;;;12.55;6.25;;;;;;;;;;4947680;29;20036;-83
2023/09/11 09:57:34;;;;;;;11.98;5.40;;;;;;;;;;4962335;29;20028;-83
2023/09/11 10:00:01;;;;;;;9.85;5.65;;;;;;;;;;4943357;29;20043;-83
2023/09/11 10:02:32;;;;;;;10.35;5.65;;;;;;;;;;4945056;29;20051;-83
2023/09/11 10:05:01;;;;;;;9.18;5.22;;;;;;;;;;4931918;29;20042;-82
2023/09/11 10:07:43;;;;;;;9.38;5.03;;;;;;;;;;4949227;29;20036;-83
2023/09/11 10:10:22;;;;;;;17.10;5.55;;;;;;;;;;4929082;29;20062;-83
2023/09/11 10:13:08;;;;;;;10.18;5.13;;;;;;;;;;4988734;28;20038;-81
2023/09/11 10:15:34;;;;;;;11.43;5.20;;;;;;;;;;4968330;29;20395;-82
2023/09/11 10:18:00;;;;;;;10.73;4.95;;;;;;;;;;4972822;28;20031;-82
2023/09/11 10:20:27;;;;;;;10.13;5.05;;;;;;;;;;4984905;28;20073;-82
2023/09/11 10:22:54;;;;;;;11.07;4.70;;;;;;;;;;4968058;29;20103;-83
2023/09/11 10:25:21;;;;;;;7.32;4.43;;;;;;;;;;4971565;29;20045;-83
2023/09/11 10:27:49;;;;;;;10.73;5.00;;;;;;;;;;4971092;28;20102;-82
2023/09/11 10:30:20;;;;;;;7.80;5.13;;;;;;;;;;4964894;28;20122;-83
2023/09/11 10:32:49;;;;;;;8.57;5.18;;;;;;;;;;4963149;28;20134;-82
2023/09/11 10:35:16;;;;;;;14.85;5.85;;;;;;;;;;4946303;29;20031;-82
2023/09/11 10:37:44;;;;;;;9.75;5.35;;;;;;;;;;4947851;29;20035;-82
2023/09/11 10:40:11;;;;;;;9.60;4.70;;;;;;;;;;4943449;29;20036;-82
2023/09/11 10:42:37;;;;;;;7.10;4.55;;;;;;;;;;4946233;29;20036;-82
2023/09/11 10:45:03;;;;;;;10.98;5.32;;;;;;;;;;4945744;29;20042;-82
2023/09/11 10:47:31;;;;;;;9.23;5.05;;;;;;;;;;4943239;29;20115;-81
2023/09/11 10:49:58;;;;;;;8.00;5.00;;;;;;;;;;4941197;29;20139;-83
2023/09/11 10:52:25;;;;;;;9.50;4.85;;;;;;;;;;4944501;29;20036;-84
2023/09/11 10:54:51;;;;;;;13.43;5.57;;;;;;;;;;4958953;29;20032;-82
2023/09/11 10:57:17;;;;;;;13.10;4.88;;;;;;;;;;4929720;29;20373;-82
2023/09/11 10:59:43;;;;;;;13.27;5.72;;;;;;;;;;4957842;29;20040;-82
2023/09/11 11:02:09;;;;;;;10.25;5.13;;;;;;;;;;4924727;29;20065;-81
2023/09/11 11:04:35;;;;;;;9.32;5.13;;;;;;;;;;4954327;29;20111;-83
2023/09/11 11:07:01;;;;;;;8.07;4.63;;;;;;;;;;4923051;29;20047;-83
2023/09/11 11:09:27;;;;;;;8.60;4.65;;;;;;;;;;4945138;29;20088;-83
2023/09/11 11:12:15;;;;;;;8.63;4.75;;;;;;;;;;4931709;29;20032;-83
2023/09/11 11:14:40;;;;;;;7.50;4.90;;;;;;;;;;4945490;29;20106;-82
2023/09/11 11:17:08;;;;;;;13.82;5.50;;;;;;;;;;4924988;29;20032;-82
2023/09/11 11:19:39;;;;;;;6.83;4.30;;;;;;;;;;4926489;29;20040;-83
2023/09/11 11:22:07;;;;;;;7.30;4.70;;;;;;;;;;4928623;29;20091;-82
2023/09/11 11:24:36;;;;;;;11.85;4.57;;;;;;;;;;4945301;29;20035;-82
2023/09/11 11:27:03;;;;;;;7.85;4.75;;;;;;;;;;4945830;29;20036;-82
2023/09/11 11:29:29;;;;;;;8.50;4.82;;;;;;;;;;4943481;28;20052;-84
2023/09/11 11:31:57;;;;;;;7.82;4.88;;;;;;;;;;4953502;29;20043;-85
2023/09/11 11:34:23;;;;;;;;;;;;;;;;;;4955051;29;20107;-82
2023/09/11 11:36:49;;;;;;;8.18;5.30;;;;;;;;;;4971192;28;19942;-84
2023/09/11 11:39:16;;;;;;;9.88;4.82;;;;;;;;;;4954116;29;20111;-84
2023/09/11 11:41:42;;;;;;;8.65;4.78;;;;;;;;;;4953047;29;20043;-84
2023/09/11 11:44:08;;;;;;;9.73;4.57;;;;;;;;;;4948788;29;20083;-84
2023/09/11 11:46:34;;;;;;;8.52;4.90;;;;;;;;;;4963739;29;20031;-82
2023/09/11 11:49:00;;;;;;;6.65;3.90;;;;;;;;;;4965254;28;20078;-82
2023/09/11 11:51:26;;;;;;;8.85;4.78;;;;;;;;;;4962567;29;20127;-81
2023/09/11 11:53:52;;;;;;;7.97;4.47;;;;;;;;;;4954733;28;20036;-83
2023/09/11 11:56:18;;;;;;;7.93;4.20;;;;;;;;;;4958579;29;20058;-83
2023/09/11 11:58:44;;;;;;;9.20;4.20;;;;;;;;;;4945265;29;20043;-83
2023/09/11 12:01:09;;;;;;;6.13;4.22;;;;;;;;;;4961927;29;20032;-83
2023/09/11 12:03:45;;;;;;;12.10;4.75;;;;;;;;;;4963825;28;20035;-82
2023/09/11 12:06:11;;;;;;;8.48;4.78;;;;;;;;;;4947888;29;20058;-83
2023/09/11 12:08:37;;;;;;;8.25;4.60;;;;;;;;;;4964923;28;20027;-83
2023/09/11 12:11:05;;;;;;;8.80;5.13;;;;;;;;;;4945970;29;20046;-82
2023/09/11 12:13:32;;;;;;;12.32;5.13;;;;;;;;;;4930360;29;20055;-83
2023/09/11 12:15:58;;;;;;;11.68;4.80;;;;;;;;;;4934888;29;20039;-83
2023/09/11 12:18:25;;;;;;;;;;;;;;;;;;4953935;29;20024;-82
2023/09/11 12:20:52;;;;;;;9.85;5.53;;;;;;;;;;4939252;29;19957;-82
2023/09/11 12:23:18;;;;;;;9.18;5.63;;;;;;;;;;4958226;28;20016;-82
2023/09/11 12:25:44;;;;;;;10.45;4.63;;;;;;;;;;4956602;29;20043;-83
2023/09/11 12:28:10;;;;;;;10.63;4.95;;;;;;;;;;4957729;28;20027;-83
2023/09/11 12:30:36;;;;;;;9.55;5.07;;;;;;;;;;4955751;28;20048;-83
2023/09/11 12:33:07;;;;;;;11.43;4.95;;;;;;;;;;4936069;29;20032;-82
2023/09/11 12:35:34;;;;;;;8.77;4.75;;;;;;;;;;4943830;29;20035;-82
2023/09/11 12:38:00;;;;;;;12.25;5.22;;;;;;;;;;4945443;29;20071;-83
2023/09/11 12:40:25;;;;;;;7.78;4.70;;;;;;;;;;4945709;29;20536;-83
2023/09/11 12:42:51;;;;;;;9.60;4.72;;;;;;;;;;4963760;29;20047;-83
2023/09/11 12:45:17;;;;;;;7.78;4.63;;;;;;;;;;4948578;29;20066;-83
2023/09/11 12:47:44;;;;;;;6.00;4.07;;;;;;;;;;4963761;28;20046;-83
2023/09/11 12:50:11;;;;;;;9.45;4.40;;;;;;;;;;4966132;29;20051;-84
2023/09/11 12:52:37;;;;;;;7.03;4.03;;;;;;;;;;4962356;29;20126;-84
2023/09/11 12:55:04;;;;;;;7.50;4.13;;;;;;;;;;4928680;29;20088;-85
2023/09/11 12:57:30;;;;;;;5.45;3.53;;;;;;;;;;4960938;29;20028;-82
2023/09/11 12:59:56;;;;;;;7.65;4.53;;;;;;;;;;4944796;29;20047;-82
2023/09/11 13:02:22;;;;;;;6.45;4.40;;;;;;;;;;4962677;29;20040;-82
2023/09/11 13:04:48;;;;;;;6.93;4.10;;;;;;;;;;4928112;29;20095;-83
2023/09/11 13:07:13;;;;;;;10.40;4.20;;;;;;;;;;4941840;29;20095;-84
2023/09/11 13:09:42;;;;;;;7.57;3.90;;;;;;;;;;4943685;29;20039;-84
2023/09/11 13:12:10;;;;;;;8.27;3.78;;;;;;;;;;4958273;29;20055;-83
2023/09/11 13:14:36;;;;;;;10.98;3.92;;;;;;;;;;4958907;29;20030;-83
2023/09/11 13:17:03;;;;;;;9.05;3.75;;;;;;;;;;4973841;28;20024;-83
2023/09/11 13:19:29;;;;;;;8.25;4.03;;;;;;;;;;4960773;28;20035;-82
2023/09/11 13:21:55;;;;;;;11.95;4.90;;;;;;;;;;4960234;29;20114;-83
2023/09/11 13:24:21;;;;;;;8.05;4.07;;;;;;;;;;4946544;28;20067;-84
2023/09/11 13:26:49;;;;;;;7.32;4.05;;;;;;;;;;4962382;28;20091;-83
2023/09/11 13:29:15;;;;;;;9.50;4.30;;;;;;;;;;4931851;29;20027;-82
2023/09/11 13:31:41;;;;;;;6.70;4.15;;;;;;;;;;4945066;29;20051;-84
2023/09/11 13:34:07;;;;;;;10.68;4.85;;;;;;;;;;4932711;29;20032;-82
2023/09/11 13:36:52;;;;;;;;;;;;;;;;;;;;;
2023/09/11 13:39:30;;;;;;;;;;;;;;;;;;4947337;29;20047;-83
2023/09/11 13:41:56;;;;;;;10.50;4.20;;;;;;;;;;4962552;28;19910;-83
2023/09/11 13:44:22;;;;;;;9.48;4.22;;;;;;;;;;4927193;29;20126;-84
2023/09/11 13:46:48;;;;;;;6.45;3.80;;;;;;;;;;4943783;29;20119;-84
2023/09/11 13:49:14;;;;;;;11.75;5.15;;;;;;;;;;4944516;29;20036;-82
2023/09/11 13:51:39;;;;;;;7.65;4.82;;;;;;;;;;4978775;28;20176;-82
2023/09/11 13:54:05;;;;;;;7.80;3.72;;;;;;;;;;4961477;29;20047;-83
2023/09/11 13:56:33;;;;;;;9.48;4.57;;;;;;;;;;4945863;29;20138;-84
2023/09/11 13:58:58;;;;;;;10.40;3.75;;;;;;;;;;4940985;29;20196;-82
2023/09/11 14:01:24;;;;;;;7.85;4.28;;;;;;;;;;4925693;29;20529;-82
2023/09/11 14:03:50;;;;;;;6.20;4.03;;;;;;;;;;4928330;29;20036;-82
2023/09/11 14:06:16;;;;;;;9.57;4.40;;;;;;;;;;4940946;29;20043;-84
2023/09/11 14:08:42;;;;;;;8.85;4.53;;;;;;;;;;4957092;28;20035;-84
2023/09/11 14:11:14;;;;;;;8.68;4.13;;;;;;;;;;4924658;29;20092;-84
2023/09/11 14:13:42;;;;;;;7.40;4.20;;;;;;;;;;4942474;29;20040;-85
2023/09/11 14:16:12;;;;;;;7.00;4.28;;;;;;;;;;4925175;29;20103;-83
2023/09/11 14:18:37;;;;;;;12.00;4.85;;;;;;;;;;4953637;28;20051;-84
2023/09/11 14:21:06;;;;;;;6.38;4.07;;;;;;;;;;4956309;29;20083;-84
2023/09/11 14:23:32;;;;;;;13.90;4.68;;;;;;;;;;4938769;29;20031;-84
2023/09/11 14:25:59;;;;;;;8.57;5.00;;;;;;;;;;4955313;29;20044;-85
2023/09/11 14:28:30;;;;;;;59.95;45.88;;;;;;;;;;4954435;28;20028;-84
2023/09/11 14:30:56;;;;;;;26.20;18.42;;;;;;;;;;4937452;29;20079;-82
2023/09/11 14:33:22;;;;;;;22.48;18.13;;;;;;;;;;4976091;28;20028;-84
2023/09/11 14:35:48;;;;;;;24.15;17.90;;;;;;;;;;4949153;29;20063;-83